SWA2317 KDAL-KDCA
Flight info
| Callsign | SWA2317 |
|---|---|
| Flight time | 2h 28m |
| Altitude | 37000 |
| Route | LNDRE5 LOOSE Q34 SITTR TRUPS5 |
| Aircraft | B737/M-SDE2E3FGHIRWXY/LB1 |
Departure
| Time | 2026-04-24 07:20 |
|---|---|
| Airport | Dallas Love Field (KDAL) |
Arrival
| Time | 2026-04-24 09:49 |
|---|---|
| Airport | Ronald Reagan Washington National Airport (KDCA) |
| Time | Latitude | Longitude | Altitude | Speed | Heading |
|---|---|---|---|---|---|
| 2026-04-24 06:37 | 32.84646 | -96.84941 | 490 ft | 0 kts | 181° |
| 2026-04-24 07:10 | 32.84652 | -96.84941 | 490 ft | 4 kts | 181° |
| 2026-04-24 07:10 | 32.84678 | -96.84940 | 490 ft | 4 kts | 184° |
| 2026-04-24 07:10 | 32.84705 | -96.84937 | 490 ft | 4 kts | 191° |
| 2026-04-24 07:10 | 32.84731 | -96.84928 | 491 ft | 4 kts | 214° |
| 2026-04-24 07:11 | 32.84743 | -96.84909 | 491 ft | 2 kts | 274° |
| 2026-04-24 07:11 | 32.84743 | -96.84908 | 491 ft | 1 kts | 274° |
| 2026-04-24 07:15 | 32.84744 | -96.84916 | 491 ft | 4 kts | 274° |
| 2026-04-24 07:15 | 32.84746 | -96.84960 | 483 ft | 6 kts | 272° |
| 2026-04-24 07:15 | 32.84747 | -96.85036 | 490 ft | 11 kts | 270° |
| 2026-04-24 07:15 | 32.84748 | -96.85129 | 486 ft | 11 kts | 271° |
| 2026-04-24 07:16 | 32.84748 | -96.85219 | 488 ft | 11 kts | 270° |
| 2026-04-24 07:16 | 32.84760 | -96.85304 | 487 ft | 10 kts | 308° |
| 2026-04-24 07:16 | 32.84813 | -96.85362 | 486 ft | 10 kts | 313° |
| 2026-04-24 07:16 | 32.84790 | -96.85434 | 479 ft | 10 kts | 228° |
| 2026-04-24 07:17 | 32.84733 | -96.85505 | 484 ft | 13 kts | 226° |
| 2026-04-24 07:17 | 32.84705 | -96.85596 | 484 ft | 13 kts | 308° |
| 2026-04-24 07:17 | 32.84778 | -96.85677 | 485 ft | 18 kts | 316° |
| 2026-04-24 07:17 | 32.84884 | -96.85799 | 483 ft | 23 kts | 316° |
| 2026-04-24 07:18 | 32.84993 | -96.85926 | 480 ft | 20 kts | 314° |
| 2026-04-24 07:18 | 32.85074 | -96.86022 | 480 ft | 10 kts | 316° |
| 2026-04-24 07:18 | 32.85118 | -96.86084 | 473 ft | 10 kts | 277° |
| 2026-04-24 07:18 | 32.85078 | -96.86148 | 475 ft | 10 kts | 224° |
| 2026-04-24 07:19 | 32.85036 | -96.86198 | 478 ft | 6 kts | 225° |
| 2026-04-24 07:19 | 32.85012 | -96.86197 | 478 ft | 4 kts | 154° |
| 2026-04-24 07:19 | 32.84977 | -96.86161 | 473 ft | 19 kts | 136° |
| 2026-04-24 07:19 | 32.84699 | -96.85841 | 485 ft | 91 kts | 136° |
| 2026-04-24 07:20 | 32.84088 | -96.85138 | 480 ft | 151 kts | 136° |
| 2026-04-24 07:20 | 32.83257 | -96.84182 | 894 ft | 169 kts | 140° |
| 2026-04-24 07:20 | 32.82433 | -96.83237 | 1863 ft | 161 kts | 136° |
| 2026-04-24 07:20 | 32.81665 | -96.82263 | 2657 ft | 171 kts | 137° |
| 2026-04-24 07:21 | 32.80788 | -96.81148 | 3182 ft | 189 kts | 137° |
| 2026-04-24 07:21 | 32.79864 | -96.79981 | 3889 ft | 202 kts | 139° |
| 2026-04-24 07:21 | 32.78812 | -96.78667 | 4160 ft | 236 kts | 139° |
| 2026-04-24 07:21 | 32.77627 | -96.77185 | 4722 ft | 253 kts | 138° |
| 2026-04-24 07:22 | 32.76409 | -96.75661 | 5474 ft | 262 kts | 139° |
| 2026-04-24 07:22 | 32.75111 | -96.74080 | 6188 ft | 269 kts | 141° |
| 2026-04-24 07:22 | 32.73757 | -96.72513 | 6963 ft | 275 kts | 142° |
| 2026-04-24 07:22 | 32.72367 | -96.70922 | 7710 ft | 280 kts | 141° |
| 2026-04-24 07:23 | 32.70955 | -96.69297 | 8415 ft | 287 kts | 141° |
| 2026-04-24 07:23 | 32.69523 | -96.67602 | 9071 ft | 294 kts | 137° |
| 2026-04-24 07:23 | 32.68465 | -96.65474 | 9724 ft | 309 kts | 110° |
| 2026-04-24 07:23 | 32.68180 | -96.62913 | 10419 ft | 317 kts | 94° |
| 2026-04-24 07:24 | 32.68137 | -96.60266 | 10996 ft | 330 kts | 92° |
| 2026-04-24 07:24 | 32.68121 | -96.57397 | 11265 ft | 363 kts | 89° |
| 2026-04-24 07:24 | 32.68649 | -96.54415 | 11817 ft | 377 kts | 66° |
| 2026-04-24 07:24 | 32.70072 | -96.51805 | 12597 ft | 378 kts | 43° |
| 2026-04-24 07:25 | 32.72077 | -96.49772 | 13457 ft | 379 kts | 36° |
| 2026-04-24 07:25 | 32.74151 | -96.47872 | 14202 ft | 384 kts | 34° |
| 2026-04-24 07:25 | 32.76290 | -96.45934 | 14907 ft | 390 kts | 34° |
| 2026-04-24 07:25 | 32.78453 | -96.43952 | 15643 ft | 394 kts | 35° |
| 2026-04-24 07:26 | 32.80625 | -96.41932 | 16381 ft | 399 kts | 35° |
| 2026-04-24 07:26 | 32.82812 | -96.39876 | 17101 ft | 402 kts | 35° |
| 2026-04-24 07:26 | 32.85019 | -96.37793 | 17778 ft | 407 kts | 35° |
| 2026-04-24 07:26 | 32.87256 | -96.35681 | 18416 ft | 412 kts | 35° |
| 2026-04-24 07:27 | 32.89371 | -96.33352 | 19055 ft | 421 kts | 49° |
| 2026-04-24 07:27 | 32.90843 | -96.30319 | 19728 ft | 427 kts | 66° |
| 2026-04-24 07:27 | 32.91933 | -96.27017 | 20442 ft | 430 kts | 68° |
| 2026-04-24 07:27 | 32.92979 | -96.23667 | 21041 ft | 434 kts | 69° |
| 2026-04-24 07:28 | 32.94032 | -96.20271 | 21584 ft | 440 kts | 69° |
| 2026-04-24 07:28 | 32.95104 | -96.16846 | 22137 ft | 444 kts | 68° |
| 2026-04-24 07:28 | 32.96203 | -96.13386 | 22710 ft | 447 kts | 68° |
| 2026-04-24 07:28 | 32.97318 | -96.09908 | 23269 ft | 450 kts | 68° |
| 2026-04-24 07:29 | 32.98443 | -96.06422 | 23787 ft | 454 kts | 68° |
| 2026-04-24 07:29 | 32.99582 | -96.02896 | 24296 ft | 457 kts | 68° |
| 2026-04-24 07:29 | 33.00727 | -95.99345 | 24778 ft | 461 kts | 68° |
| 2026-04-24 07:29 | 33.01867 | -95.95807 | 25240 ft | 465 kts | 68° |
| 2026-04-24 07:30 | 33.03025 | -95.92205 | 25745 ft | 467 kts | 67° |
| 2026-04-24 07:30 | 33.04190 | -95.88574 | 26163 ft | 470 kts | 67° |
| 2026-04-24 07:30 | 33.05363 | -95.84919 | 26530 ft | 475 kts | 67° |
| 2026-04-24 07:30 | 33.06552 | -95.81218 | 26934 ft | 478 kts | 67° |
| 2026-04-24 07:31 | 33.07745 | -95.77505 | 27339 ft | 481 kts | 67° |
| 2026-04-24 07:31 | 33.08949 | -95.73756 | 27716 ft | 485 kts | 67° |
| 2026-04-24 07:31 | 33.10159 | -95.69985 | 28111 ft | 487 kts | 67° |
| 2026-04-24 07:31 | 33.11355 | -95.66251 | 28474 ft | 490 kts | 66° |
| 2026-04-24 07:32 | 33.12590 | -95.62389 | 28812 ft | 493 kts | 66° |
| 2026-04-24 07:32 | 33.13798 | -95.58603 | 29128 ft | 496 kts | 66° |
| 2026-04-24 07:32 | 33.15045 | -95.54694 | 29475 ft | 499 kts | 66° |
| 2026-04-24 07:32 | 33.16280 | -95.50815 | 29803 ft | 501 kts | 66° |
| 2026-04-24 07:33 | 33.17509 | -95.46960 | 30119 ft | 504 kts | 66° |
| 2026-04-24 07:33 | 33.18756 | -95.43033 | 30433 ft | 507 kts | 66° |
| 2026-04-24 07:33 | 33.20007 | -95.39087 | 30776 ft | 508 kts | 66° |
| 2026-04-24 07:33 | 33.21255 | -95.35144 | 31186 ft | 508 kts | 66° |
| 2026-04-24 07:34 | 33.22502 | -95.31202 | 31635 ft | 506 kts | 66° |
| 2026-04-24 07:34 | 33.23744 | -95.27272 | 32113 ft | 504 kts | 66° |
| 2026-04-24 07:34 | 33.24979 | -95.23359 | 32545 ft | 502 kts | 66° |
| 2026-04-24 07:34 | 33.26212 | -95.19452 | 32904 ft | 502 kts | 66° |
| 2026-04-24 07:35 | 33.27442 | -95.15544 | 33284 ft | 501 kts | 66° |
| 2026-04-24 07:35 | 33.28666 | -95.11648 | 33665 ft | 500 kts | 65° |
| 2026-04-24 07:35 | 33.29887 | -95.07762 | 34032 ft | 499 kts | 65° |
| 2026-04-24 07:35 | 33.31090 | -95.03929 | 34373 ft | 498 kts | 65° |
| 2026-04-24 07:36 | 33.32320 | -95.00002 | 34681 ft | 498 kts | 65° |
| 2026-04-24 07:36 | 33.33517 | -94.96174 | 34950 ft | 498 kts | 65° |
| 2026-04-24 07:36 | 33.34730 | -94.92291 | 35220 ft | 498 kts | 65° |
| 2026-04-24 07:36 | 33.35939 | -94.88414 | 35491 ft | 497 kts | 65° |
| 2026-04-24 07:37 | 33.37145 | -94.84541 | 35796 ft | 496 kts | 65° |
| 2026-04-24 07:37 | 33.38351 | -94.80669 | 36082 ft | 496 kts | 65° |
| 2026-04-24 07:37 | 33.39553 | -94.76802 | 36355 ft | 495 kts | 65° |
| 2026-04-24 07:37 | 33.40752 | -94.72944 | 36619 ft | 495 kts | 65° |
| 2026-04-24 07:38 | 33.41952 | -94.69078 | 36840 ft | 494 kts | 65° |
| 2026-04-24 07:38 | 33.43135 | -94.65250 | 36816 ft | 486 kts | 65° |
| 2026-04-24 07:38 | 33.45459 | -94.57727 | 36849 ft | 484 kts | 65° |
| 2026-04-24 07:39 | 33.47795 | -94.50155 | 36848 ft | 484 kts | 65° |
| 2026-04-24 07:39 | 33.50125 | -94.42582 | 36843 ft | 485 kts | 65° |
| 2026-04-24 07:40 | 33.52451 | -94.34996 | 36848 ft | 485 kts | 65° |
| 2026-04-24 07:40 | 33.54773 | -94.27409 | 36851 ft | 484 kts | 65° |
| 2026-04-24 07:41 | 33.57050 | -94.19873 | 36858 ft | 484 kts | 66° |
| 2026-04-24 07:41 | 33.59306 | -94.12274 | 36860 ft | 482 kts | 66° |
| 2026-04-24 07:42 | 33.61555 | -94.04687 | 36863 ft | 482 kts | 66° |
| 2026-04-24 07:42 | 33.63801 | -93.97119 | 36860 ft | 481 kts | 66° |
| 2026-04-24 07:43 | 33.66039 | -93.89556 | 36861 ft | 480 kts | 66° |
| 2026-04-24 07:43 | 33.68266 | -93.82005 | 36861 ft | 479 kts | 66° |
| 2026-04-24 07:44 | 33.70471 | -93.74508 | 36860 ft | 479 kts | 66° |
| 2026-04-24 07:44 | 33.72683 | -93.66971 | 36861 ft | 479 kts | 66° |
| 2026-04-24 07:45 | 33.74895 | -93.59419 | 36861 ft | 479 kts | 66° |
| 2026-04-24 07:45 | 33.77102 | -93.51868 | 36866 ft | 479 kts | 66° |
| 2026-04-24 07:46 | 33.79303 | -93.44305 | 36856 ft | 480 kts | 66° |
| 2026-04-24 07:46 | 33.81508 | -93.36720 | 36864 ft | 480 kts | 66° |
| 2026-04-24 07:47 | 33.83703 | -93.29146 | 36857 ft | 479 kts | 66° |
| 2026-04-24 07:47 | 33.85891 | -93.21571 | 36873 ft | 479 kts | 66° |
| 2026-04-24 07:48 | 33.88075 | -93.13994 | 36868 ft | 478 kts | 66° |
| 2026-04-24 07:48 | 33.90290 | -93.06507 | 36868 ft | 476 kts | 63° |
| 2026-04-24 07:49 | 33.92972 | -92.99239 | 36879 ft | 474 kts | 59° |
| 2026-04-24 07:49 | 33.95758 | -92.92043 | 36868 ft | 474 kts | 60° |
| 2026-04-24 07:50 | 33.98029 | -92.86023 | 36874 ft | 474 kts | 61° |
| 2026-04-24 07:50 | 34.00714 | -92.78769 | 36869 ft | 474 kts | 61° |
| 2026-04-24 07:51 | 34.03391 | -92.71507 | 36868 ft | 473 kts | 62° |
| 2026-04-24 07:51 | 34.06060 | -92.64267 | 36867 ft | 472 kts | 62° |
| 2026-04-24 07:52 | 34.08753 | -92.57052 | 36870 ft | 470 kts | 61° |
| 2026-04-24 07:52 | 34.11442 | -92.49856 | 36871 ft | 470 kts | 61° |
| 2026-04-24 07:53 | 34.14099 | -92.42712 | 36870 ft | 469 kts | 61° |
| 2026-04-24 07:53 | 34.16781 | -92.35481 | 36880 ft | 469 kts | 61° |
| 2026-04-24 07:54 | 34.19428 | -92.28337 | 36880 ft | 469 kts | 62° |
| 2026-04-24 07:54 | 34.22087 | -92.21139 | 36877 ft | 469 kts | 61° |
| 2026-04-24 07:55 | 34.24741 | -92.13939 | 36882 ft | 469 kts | 61° |
| 2026-04-24 07:55 | 34.27390 | -92.06740 | 36890 ft | 469 kts | 62° |
| 2026-04-24 07:56 | 34.30038 | -91.99527 | 36889 ft | 469 kts | 62° |
| 2026-04-24 07:56 | 34.32679 | -91.92315 | 36897 ft | 469 kts | 62° |
| 2026-04-24 07:57 | 34.35303 | -91.85130 | 36888 ft | 470 kts | 62° |
| 2026-04-24 07:57 | 34.37942 | -91.77891 | 36888 ft | 470 kts | 62° |
| 2026-04-24 07:58 | 34.40575 | -91.70648 | 36886 ft | 469 kts | 62° |
| 2026-04-24 07:58 | 34.43203 | -91.63408 | 36879 ft | 470 kts | 62° |
| 2026-04-24 07:59 | 34.45828 | -91.56157 | 36881 ft | 469 kts | 62° |
| 2026-04-24 07:59 | 34.48440 | -91.48924 | 36891 ft | 468 kts | 62° |
| 2026-04-24 08:00 | 34.51029 | -91.41744 | 36882 ft | 467 kts | 63° |
| 2026-04-24 08:00 | 34.53623 | -91.34528 | 36888 ft | 466 kts | 63° |
| 2026-04-24 08:01 | 34.56211 | -91.27317 | 36890 ft | 466 kts | 63° |
| 2026-04-24 08:01 | 34.58789 | -91.20116 | 36885 ft | 465 kts | 63° |
| 2026-04-24 08:02 | 34.61363 | -91.12915 | 36887 ft | 465 kts | 63° |
| 2026-04-24 08:02 | 34.63929 | -91.05719 | 36877 ft | 465 kts | 64° |
| 2026-04-24 08:03 | 34.66490 | -90.98510 | 36880 ft | 464 kts | 64° |
| 2026-04-24 08:03 | 34.69044 | -90.91309 | 36886 ft | 463 kts | 64° |
| 2026-04-24 08:04 | 34.71589 | -90.84118 | 36885 ft | 463 kts | 64° |
| 2026-04-24 08:04 | 34.74115 | -90.76967 | 36890 ft | 462 kts | 64° |
| 2026-04-24 08:05 | 34.76646 | -90.69785 | 36890 ft | 462 kts | 64° |
| 2026-04-24 08:05 | 34.79171 | -90.62598 | 36902 ft | 461 kts | 64° |
| 2026-04-24 08:06 | 34.81689 | -90.55419 | 36903 ft | 462 kts | 64° |
| 2026-04-24 08:06 | 34.84208 | -90.48224 | 36894 ft | 462 kts | 64° |
| 2026-04-24 08:07 | 34.86704 | -90.41075 | 36897 ft | 461 kts | 65° |
| 2026-04-24 08:07 | 34.89208 | -90.33885 | 36898 ft | 461 kts | 65° |
| 2026-04-24 08:08 | 34.91712 | -90.26684 | 36906 ft | 461 kts | 65° |
| 2026-04-24 08:09 | 34.95455 | -90.15883 | 36906 ft | 461 kts | 65° |
| 2026-04-24 08:09 | 34.97942 | -90.08681 | 36913 ft | 460 kts | 65° |
| 2026-04-24 08:10 | 35.00427 | -90.01474 | 36912 ft | 461 kts | 65° |
| 2026-04-24 08:10 | 35.02920 | -89.94316 | 36916 ft | 461 kts | 65° |
| 2026-04-24 08:11 | 35.05501 | -89.87150 | 36919 ft | 461 kts | 64° |
| 2026-04-24 08:11 | 35.08085 | -89.79986 | 36917 ft | 461 kts | 65° |
| 2026-04-24 08:12 | 35.10660 | -89.72801 | 36923 ft | 462 kts | 65° |
| 2026-04-24 08:12 | 35.13225 | -89.65608 | 36913 ft | 462 kts | 65° |
| 2026-04-24 08:13 | 35.15786 | -89.58410 | 36920 ft | 462 kts | 65° |
| 2026-04-24 08:13 | 35.18340 | -89.51218 | 36925 ft | 462 kts | 65° |
| 2026-04-24 08:14 | 35.20892 | -89.44014 | 36913 ft | 461 kts | 65° |
| 2026-04-24 08:14 | 35.23424 | -89.36845 | 36919 ft | 461 kts | 65° |
| 2026-04-24 08:15 | 35.25965 | -89.29637 | 36908 ft | 461 kts | 65° |
| 2026-04-24 08:15 | 35.28499 | -89.22423 | 36910 ft | 462 kts | 65° |
| 2026-04-24 08:16 | 35.31035 | -89.15194 | 36929 ft | 461 kts | 65° |
| 2026-04-24 08:16 | 35.33565 | -89.07968 | 36926 ft | 462 kts | 65° |
| 2026-04-24 08:17 | 35.36094 | -89.00733 | 36931 ft | 462 kts | 65° |
| 2026-04-24 08:17 | 35.38606 | -88.93530 | 36929 ft | 463 kts | 66° |
| 2026-04-24 08:18 | 35.41133 | -88.86268 | 36932 ft | 463 kts | 66° |
| 2026-04-24 08:18 | 35.43659 | -88.78987 | 36939 ft | 464 kts | 66° |
| 2026-04-24 08:19 | 35.46180 | -88.71705 | 36934 ft | 464 kts | 66° |
| 2026-04-24 08:19 | 35.48702 | -88.64398 | 36935 ft | 465 kts | 66° |
| 2026-04-24 08:20 | 35.51223 | -88.57085 | 36946 ft | 465 kts | 66° |
| 2026-04-24 08:20 | 35.53725 | -88.49805 | 36943 ft | 466 kts | 66° |
| 2026-04-24 08:21 | 35.56244 | -88.42456 | 36945 ft | 467 kts | 66° |
| 2026-04-24 08:21 | 35.58762 | -88.35092 | 36947 ft | 468 kts | 66° |
| 2026-04-24 08:22 | 35.61281 | -88.27707 | 36950 ft | 469 kts | 66° |
| 2026-04-24 08:22 | 35.63798 | -88.20309 | 36955 ft | 469 kts | 66° |
| 2026-04-24 08:23 | 35.66312 | -88.12904 | 36949 ft | 468 kts | 67° |
| 2026-04-24 08:23 | 35.68809 | -88.05517 | 36954 ft | 468 kts | 67° |
| 2026-04-24 08:24 | 35.71288 | -87.98171 | 36955 ft | 467 kts | 67° |
| 2026-04-24 08:24 | 35.73778 | -87.90779 | 36952 ft | 468 kts | 67° |
| 2026-04-24 08:25 | 35.76267 | -87.83376 | 36942 ft | 468 kts | 67° |
| 2026-04-24 08:25 | 35.78747 | -87.75971 | 36949 ft | 468 kts | 67° |
| 2026-04-24 08:26 | 35.81208 | -87.68539 | 36939 ft | 468 kts | 68° |
| 2026-04-24 08:26 | 35.83652 | -87.61109 | 36947 ft | 467 kts | 68° |
| 2026-04-24 08:27 | 35.86091 | -87.53685 | 36945 ft | 467 kts | 68° |
| 2026-04-24 08:27 | 35.88532 | -87.46254 | 36945 ft | 467 kts | 68° |
| 2026-04-24 08:28 | 35.90945 | -87.38878 | 36944 ft | 467 kts | 68° |
| 2026-04-24 08:28 | 35.93372 | -87.31441 | 36944 ft | 467 kts | 68° |
| 2026-04-24 08:29 | 35.95792 | -87.24007 | 36946 ft | 467 kts | 68° |
| 2026-04-24 08:29 | 35.98212 | -87.16552 | 36945 ft | 467 kts | 68° |
| 2026-04-24 08:30 | 36.00631 | -87.09094 | 36943 ft | 468 kts | 68° |
| 2026-04-24 08:30 | 36.03042 | -87.01626 | 36944 ft | 467 kts | 68° |
| 2026-04-24 08:31 | 36.05431 | -86.94212 | 36957 ft | 467 kts | 68° |
| 2026-04-24 08:31 | 36.07837 | -86.86729 | 36954 ft | 468 kts | 68° |
| 2026-04-24 08:32 | 36.10237 | -86.79250 | 36955 ft | 468 kts | 68° |
| 2026-04-24 08:32 | 36.12638 | -86.71749 | 36966 ft | 468 kts | 68° |
| 2026-04-24 08:33 | 36.15040 | -86.64252 | 36973 ft | 468 kts | 68° |
| 2026-04-24 08:33 | 36.17475 | -86.56776 | 36973 ft | 469 kts | 68° |
| 2026-04-24 08:34 | 36.19898 | -86.49328 | 36972 ft | 469 kts | 68° |
| 2026-04-24 08:34 | 36.22326 | -86.41823 | 36974 ft | 469 kts | 68° |
| 2026-04-24 08:35 | 36.24749 | -86.34305 | 36959 ft | 470 kts | 68° |
| 2026-04-24 08:35 | 36.27170 | -86.26776 | 36965 ft | 470 kts | 68° |
| 2026-04-24 08:36 | 36.29586 | -86.19244 | 36960 ft | 470 kts | 68° |
| 2026-04-24 08:36 | 36.31996 | -86.11710 | 36969 ft | 469 kts | 68° |
| 2026-04-24 08:37 | 36.34395 | -86.04189 | 36969 ft | 469 kts | 68° |
| 2026-04-24 08:37 | 36.36789 | -85.96666 | 36982 ft | 469 kts | 68° |
| 2026-04-24 08:38 | 36.39177 | -85.89133 | 36980 ft | 469 kts | 68° |
| 2026-04-24 08:38 | 36.41163 | -85.82865 | 36980 ft | 469 kts | 68° |
| 2026-04-24 08:39 | 36.43933 | -85.74100 | 36977 ft | 469 kts | 68° |
| 2026-04-24 08:39 | 36.46314 | -85.66543 | 36984 ft | 469 kts | 68° |
| 2026-04-24 08:40 | 36.48298 | -85.60222 | 36983 ft | 469 kts | 68° |
| 2026-04-24 08:40 | 36.50654 | -85.52710 | 36992 ft | 469 kts | 68° |
| 2026-04-24 08:41 | 36.53420 | -85.43862 | 37004 ft | 470 kts | 68° |
| 2026-04-24 08:41 | 36.55388 | -85.37549 | 36995 ft | 471 kts | 68° |
| 2026-04-24 08:42 | 36.57752 | -85.29943 | 36987 ft | 471 kts | 68° |
| 2026-04-24 08:42 | 36.60110 | -85.22339 | 36993 ft | 471 kts | 68° |
| 2026-04-24 08:43 | 36.62464 | -85.14731 | 36990 ft | 471 kts | 68° |
| 2026-04-24 08:43 | 36.64810 | -85.07124 | 37005 ft | 470 kts | 68° |
| 2026-04-24 08:44 | 36.67152 | -84.99510 | 37010 ft | 471 kts | 68° |
| 2026-04-24 08:44 | 36.69490 | -84.91886 | 37011 ft | 470 kts | 68° |
| 2026-04-24 08:45 | 36.71820 | -84.84266 | 37018 ft | 470 kts | 68° |
| 2026-04-24 08:45 | 36.74146 | -84.76642 | 37022 ft | 470 kts | 68° |
| 2026-04-24 08:46 | 36.76466 | -84.69016 | 37031 ft | 470 kts | 68° |
| 2026-04-24 08:46 | 36.78781 | -84.61385 | 37019 ft | 470 kts | 68° |
| 2026-04-24 08:47 | 36.81079 | -84.53792 | 37017 ft | 471 kts | 68° |
| 2026-04-24 08:47 | 36.83392 | -84.46125 | 37021 ft | 472 kts | 68° |
| 2026-04-24 08:48 | 36.85703 | -84.38449 | 37019 ft | 472 kts | 68° |
| 2026-04-24 08:48 | 36.88008 | -84.30766 | 37017 ft | 472 kts | 68° |
| 2026-04-24 08:49 | 36.90310 | -84.23069 | 37020 ft | 472 kts | 68° |
| 2026-04-24 08:49 | 36.92607 | -84.15374 | 37021 ft | 473 kts | 68° |
| 2026-04-24 08:50 | 36.94886 | -84.07721 | 37017 ft | 473 kts | 68° |
| 2026-04-24 08:50 | 36.97174 | -84.00011 | 37020 ft | 473 kts | 68° |
| 2026-04-24 08:51 | 36.99458 | -83.92293 | 37011 ft | 473 kts | 68° |
| 2026-04-24 08:51 | 37.01733 | -83.84585 | 37024 ft | 472 kts | 68° |
| 2026-04-24 08:52 | 37.04008 | -83.76855 | 37031 ft | 472 kts | 68° |
| 2026-04-24 08:52 | 37.06274 | -83.69135 | 37029 ft | 473 kts | 68° |
| 2026-04-24 08:53 | 37.08538 | -83.61399 | 37039 ft | 473 kts | 68° |
| 2026-04-24 08:53 | 37.10795 | -83.53663 | 37033 ft | 473 kts | 68° |
| 2026-04-24 08:54 | 37.13046 | -83.45925 | 37050 ft | 472 kts | 68° |
| 2026-04-24 08:54 | 37.15292 | -83.38184 | 37035 ft | 472 kts | 68° |
| 2026-04-24 08:55 | 37.17519 | -83.30485 | 37036 ft | 473 kts | 68° |
| 2026-04-24 08:55 | 37.19759 | -83.22723 | 37037 ft | 472 kts | 68° |
| 2026-04-24 08:56 | 37.21992 | -83.14961 | 37038 ft | 473 kts | 68° |
| 2026-04-24 08:56 | 37.24220 | -83.07192 | 37040 ft | 473 kts | 68° |
| 2026-04-24 08:57 | 37.26446 | -82.99410 | 37037 ft | 473 kts | 68° |
| 2026-04-24 08:57 | 37.28649 | -82.91678 | 37033 ft | 473 kts | 68° |
| 2026-04-24 08:58 | 37.30864 | -82.83893 | 37035 ft | 473 kts | 68° |
| 2026-04-24 08:58 | 37.33072 | -82.76109 | 37037 ft | 473 kts | 68° |
| 2026-04-24 08:59 | 37.35278 | -82.68315 | 37036 ft | 473 kts | 68° |
| 2026-04-24 08:59 | 37.37476 | -82.60517 | 37044 ft | 473 kts | 68° |
| 2026-04-24 09:00 | 37.39668 | -82.52716 | 37033 ft | 473 kts | 68° |
| 2026-04-24 09:00 | 37.41854 | -82.44909 | 37032 ft | 472 kts | 68° |
| 2026-04-24 09:01 | 37.44018 | -82.37163 | 37038 ft | 472 kts | 68° |
| 2026-04-24 09:01 | 37.46191 | -82.29365 | 37040 ft | 472 kts | 68° |
| 2026-04-24 09:02 | 37.48362 | -82.21552 | 37034 ft | 473 kts | 68° |
| 2026-04-24 09:02 | 37.50535 | -82.13708 | 37045 ft | 474 kts | 68° |
| 2026-04-24 09:03 | 37.52705 | -82.05852 | 37034 ft | 475 kts | 68° |
| 2026-04-24 09:03 | 37.54872 | -81.97987 | 37038 ft | 476 kts | 68° |
| 2026-04-24 09:04 | 37.57021 | -81.90152 | 37042 ft | 476 kts | 68° |
| 2026-04-24 09:04 | 37.59180 | -81.82266 | 37047 ft | 476 kts | 68° |
| 2026-04-24 09:05 | 37.61332 | -81.74378 | 37051 ft | 476 kts | 68° |
| 2026-04-24 09:05 | 37.63480 | -81.66482 | 37068 ft | 475 kts | 68° |
| 2026-04-24 09:06 | 37.65621 | -81.58586 | 37074 ft | 475 kts | 68° |
| 2026-04-24 09:06 | 37.67756 | -81.50692 | 37085 ft | 475 kts | 68° |
| 2026-04-24 09:07 | 37.69886 | -81.42782 | 37078 ft | 476 kts | 68° |
| 2026-04-24 09:07 | 37.73075 | -81.30900 | 37064 ft | 476 kts | 68° |
| 2026-04-24 09:08 | 37.75197 | -81.22970 | 37055 ft | 476 kts | 68° |
| 2026-04-24 09:08 | 37.77310 | -81.15042 | 37046 ft | 476 kts | 68° |
| 2026-04-24 09:09 | 37.79654 | -81.07255 | 37052 ft | 472 kts | 62° |
| 2026-04-24 09:09 | 37.82412 | -80.99784 | 37043 ft | 472 kts | 61° |
| 2026-04-24 09:10 | 37.85153 | -80.92239 | 37050 ft | 472 kts | 62° |
| 2026-04-24 09:10 | 37.87830 | -80.84636 | 37042 ft | 472 kts | 62° |
| 2026-04-24 09:11 | 37.90518 | -80.77040 | 37036 ft | 472 kts | 62° |
| 2026-04-24 09:11 | 37.93217 | -80.69474 | 37040 ft | 472 kts | 61° |
| 2026-04-24 09:12 | 37.95898 | -80.61927 | 37037 ft | 472 kts | 61° |
| 2026-04-24 09:12 | 37.98587 | -80.54327 | 37042 ft | 473 kts | 61° |
| 2026-04-24 09:13 | 38.01271 | -80.46721 | 37039 ft | 473 kts | 61° |
| 2026-04-24 09:13 | 38.03950 | -80.39112 | 37037 ft | 473 kts | 61° |
| 2026-04-24 09:14 | 38.06627 | -80.31477 | 37039 ft | 473 kts | 61° |
| 2026-04-24 09:14 | 38.09287 | -80.23891 | 37031 ft | 473 kts | 61° |
| 2026-04-24 09:15 | 38.11988 | -80.16287 | 37035 ft | 472 kts | 60° |
| 2026-04-24 09:15 | 38.14695 | -80.08684 | 37042 ft | 472 kts | 60° |
| 2026-04-24 09:16 | 38.17392 | -80.01077 | 37046 ft | 473 kts | 60° |
| 2026-04-24 09:16 | 38.20085 | -79.93445 | 37039 ft | 472 kts | 61° |
| 2026-04-24 09:17 | 38.22766 | -79.85823 | 37052 ft | 473 kts | 61° |
| 2026-04-24 09:17 | 38.25456 | -79.78169 | 37028 ft | 473 kts | 61° |
| 2026-04-24 09:18 | 38.28132 | -79.70523 | 37043 ft | 473 kts | 61° |
| 2026-04-24 09:18 | 38.30758 | -79.62896 | 37022 ft | 473 kts | 61° |
| 2026-04-24 09:19 | 38.33401 | -79.55185 | 36532 ft | 481 kts | 61° |
| 2026-04-24 09:19 | 38.34739 | -79.51277 | 35934 ft | 479 kts | 61° |
| 2026-04-24 09:19 | 38.36072 | -79.47379 | 35185 ft | 480 kts | 61° |
| 2026-04-24 09:20 | 38.37409 | -79.43471 | 34412 ft | 481 kts | 61° |
| 2026-04-24 09:20 | 38.38748 | -79.39552 | 33589 ft | 483 kts | 62° |
| 2026-04-24 09:20 | 38.40093 | -79.35608 | 32746 ft | 485 kts | 62° |
| 2026-04-24 09:20 | 38.41442 | -79.31651 | 31879 ft | 488 kts | 62° |
| 2026-04-24 09:21 | 38.42703 | -79.27648 | 31256 ft | 488 kts | 68° |
| 2026-04-24 09:21 | 38.43537 | -79.23456 | 30623 ft | 487 kts | 74° |
| 2026-04-24 09:21 | 38.44203 | -79.19225 | 29994 ft | 484 kts | 75° |
| 2026-04-24 09:21 | 38.44842 | -79.15035 | 29364 ft | 479 kts | 75° |
| 2026-04-24 09:22 | 38.45514 | -79.10897 | 28723 ft | 474 kts | 74° |
| 2026-04-24 09:22 | 38.46223 | -79.06807 | 28097 ft | 470 kts | 73° |
| 2026-04-24 09:22 | 38.46929 | -79.02802 | 27843 ft | 456 kts | 73° |
| 2026-04-24 09:22 | 38.47622 | -78.98868 | 27382 ft | 452 kts | 74° |
| 2026-04-24 09:23 | 38.48302 | -78.94975 | 26974 ft | 447 kts | 74° |
| 2026-04-24 09:23 | 38.48972 | -78.91124 | 26559 ft | 443 kts | 74° |
| 2026-04-24 09:23 | 38.49629 | -78.87334 | 26162 ft | 442 kts | 74° |
| 2026-04-24 09:23 | 38.50288 | -78.83490 | 25673 ft | 445 kts | 75° |
| 2026-04-24 09:24 | 38.50909 | -78.79615 | 25058 ft | 445 kts | 76° |
| 2026-04-24 09:24 | 38.51508 | -78.75737 | 24474 ft | 443 kts | 76° |
| 2026-04-24 09:24 | 38.52100 | -78.71902 | 23881 ft | 438 kts | 76° |
| 2026-04-24 09:24 | 38.52691 | -78.68106 | 23303 ft | 433 kts | 76° |
| 2026-04-24 09:25 | 38.53281 | -78.64353 | 22805 ft | 427 kts | 76° |
| 2026-04-24 09:25 | 38.53863 | -78.60694 | 22539 ft | 415 kts | 76° |
| 2026-04-24 09:25 | 38.54244 | -78.58314 | 22355 ft | 410 kts | 76° |
| 2026-04-24 09:25 | 38.54812 | -78.54767 | 22087 ft | 406 kts | 76° |
| 2026-04-24 09:26 | 38.55380 | -78.51218 | 21824 ft | 410 kts | 76° |
| 2026-04-24 09:26 | 38.55951 | -78.47631 | 21551 ft | 413 kts | 76° |
| 2026-04-24 09:26 | 38.56521 | -78.44044 | 21275 ft | 411 kts | 76° |
| 2026-04-24 09:26 | 38.57086 | -78.40463 | 20995 ft | 409 kts | 76° |
| 2026-04-24 09:27 | 38.57667 | -78.36900 | 20549 ft | 411 kts | 76° |
| 2026-04-24 09:27 | 38.58295 | -78.33332 | 20071 ft | 410 kts | 75° |
| 2026-04-24 09:27 | 38.58922 | -78.29791 | 19599 ft | 405 kts | 75° |
| 2026-04-24 09:27 | 38.59532 | -78.26300 | 19125 ft | 399 kts | 76° |
| 2026-04-24 09:28 | 38.60222 | -78.22956 | 18664 ft | 391 kts | 69° |
| 2026-04-24 09:28 | 38.61229 | -78.19765 | 18286 ft | 383 kts | 64° |
| 2026-04-24 09:28 | 38.62317 | -78.16674 | 17866 ft | 380 kts | 64° |
| 2026-04-24 09:28 | 38.63377 | -78.13583 | 17418 ft | 378 kts | 65° |
| 2026-04-24 09:29 | 38.64396 | -78.10491 | 16966 ft | 376 kts | 65° |
| 2026-04-24 09:29 | 38.65393 | -78.07405 | 16543 ft | 374 kts | 65° |
| 2026-04-24 09:29 | 38.66381 | -78.04327 | 16104 ft | 373 kts | 65° |
| 2026-04-24 09:29 | 38.67362 | -78.01264 | 15661 ft | 370 kts | 65° |
| 2026-04-24 09:30 | 38.68335 | -77.98227 | 15224 ft | 367 kts | 65° |
| 2026-04-24 09:30 | 38.69610 | -77.94243 | 14650 ft | 363 kts | 65° |
| 2026-04-24 09:30 | 38.70245 | -77.92260 | 14366 ft | 361 kts | 65° |
| 2026-04-24 09:30 | 38.71196 | -77.89292 | 13943 ft | 358 kts | 65° |
| 2026-04-24 09:31 | 38.72133 | -77.86360 | 13517 ft | 353 kts | 65° |
| 2026-04-24 09:31 | 38.73070 | -77.83474 | 13091 ft | 347 kts | 62° |
| 2026-04-24 09:31 | 38.74360 | -77.81007 | 12815 ft | 323 kts | 45° |
| 2026-04-24 09:31 | 38.75846 | -77.78912 | 12403 ft | 311 kts | 43° |
| 2026-04-24 09:32 | 38.77300 | -77.76906 | 12098 ft | 305 kts | 44° |
| 2026-04-24 09:32 | 38.78717 | -77.74918 | 11774 ft | 301 kts | 44° |
| 2026-04-24 09:32 | 38.80118 | -77.72918 | 11457 ft | 301 kts | 44° |
| 2026-04-24 09:32 | 38.81504 | -77.70921 | 11140 ft | 300 kts | 44° |
| 2026-04-24 09:33 | 38.82702 | -77.68720 | 10829 ft | 304 kts | 59° |
| 2026-04-24 09:33 | 38.83595 | -77.66265 | 10547 ft | 304 kts | 62° |
| 2026-04-24 09:33 | 38.84455 | -77.63793 | 10249 ft | 304 kts | 62° |
| 2026-04-24 09:33 | 38.85321 | -77.61321 | 9951 ft | 304 kts | 62° |
| 2026-04-24 09:34 | 38.86197 | -77.58852 | 9654 ft | 304 kts | 62° |
| 2026-04-24 09:34 | 38.87083 | -77.56381 | 9352 ft | 305 kts | 61° |
| 2026-04-24 09:34 | 38.87975 | -77.53914 | 9057 ft | 305 kts | 61° |
| 2026-04-24 09:34 | 38.88871 | -77.51443 | 8753 ft | 306 kts | 61° |
| 2026-04-24 09:35 | 38.89756 | -77.48996 | 8452 ft | 305 kts | 61° |
| 2026-04-24 09:35 | 38.90508 | -77.46440 | 8122 ft | 310 kts | 77° |
| 2026-04-24 09:35 | 38.90431 | -77.43670 | 7813 ft | 314 kts | 104° |
| 2026-04-24 09:35 | 38.89550 | -77.41121 | 7500 ft | 312 kts | 119° |
| 2026-04-24 09:36 | 38.88475 | -77.38715 | 7149 ft | 309 kts | 120° |
| 2026-04-24 09:36 | 38.87401 | -77.36333 | 6807 ft | 307 kts | 120° |
| 2026-04-24 09:36 | 38.86353 | -77.33967 | 6459 ft | 304 kts | 120° |
| 2026-04-24 09:36 | 38.85321 | -77.31615 | 6136 ft | 301 kts | 119° |
| 2026-04-24 09:37 | 38.84297 | -77.29289 | 6034 ft | 296 kts | 120° |
| 2026-04-24 09:37 | 38.83294 | -77.27059 | 5997 ft | 281 kts | 120° |
| 2026-04-24 09:37 | 38.82350 | -77.24971 | 5971 ft | 260 kts | 120° |
| 2026-04-24 09:37 | 38.81473 | -77.23026 | 5881 ft | 245 kts | 120° |
| 2026-04-24 09:38 | 38.80642 | -77.21181 | 5609 ft | 239 kts | 120° |
| 2026-04-24 09:38 | 38.79810 | -77.19342 | 5244 ft | 239 kts | 120° |
| 2026-04-24 09:38 | 38.78983 | -77.17511 | 4943 ft | 236 kts | 120° |
| 2026-04-24 09:38 | 38.78167 | -77.15701 | 4628 ft | 233 kts | 120° |
| 2026-04-24 09:39 | 38.77357 | -77.13907 | 4340 ft | 231 kts | 120° |
| 2026-04-24 09:39 | 38.76459 | -77.12219 | 4114 ft | 229 kts | 140° |
| 2026-04-24 09:39 | 38.75071 | -77.11333 | 3945 ft | 221 kts | 172° |
| 2026-04-24 09:39 | 38.73545 | -77.11135 | 3799 ft | 221 kts | 181° |
| 2026-04-24 09:40 | 38.72000 | -77.11072 | 3607 ft | 223 kts | 182° |
| 2026-04-24 09:40 | 38.70446 | -77.11015 | 3414 ft | 223 kts | 182° |
| 2026-04-24 09:40 | 38.68898 | -77.10946 | 3234 ft | 222 kts | 181° |
| 2026-04-24 09:40 | 38.67358 | -77.10869 | 3056 ft | 220 kts | 181° |
| 2026-04-24 09:41 | 38.65840 | -77.10788 | 2879 ft | 216 kts | 181° |
| 2026-04-24 09:41 | 38.64353 | -77.10708 | 2719 ft | 211 kts | 180° |
| 2026-04-24 09:41 | 38.62901 | -77.10628 | 2567 ft | 205 kts | 180° |
| 2026-04-24 09:41 | 38.61483 | -77.10614 | 2507 ft | 204 kts | 182° |
| 2026-04-24 09:42 | 38.60072 | -77.10493 | 2471 ft | 204 kts | 163° |
| 2026-04-24 09:42 | 38.58947 | -77.09477 | 2493 ft | 206 kts | 127° |
| 2026-04-24 09:42 | 38.58477 | -77.07742 | 2526 ft | 212 kts | 94° |
| 2026-04-24 09:42 | 38.58590 | -77.05830 | 2486 ft | 220 kts | 71° |
| 2026-04-24 09:43 | 38.59383 | -77.04186 | 2511 ft | 219 kts | 49° |
| 2026-04-24 09:43 | 38.60482 | -77.02839 | 2507 ft | 219 kts | 40° |
| 2026-04-24 09:43 | 38.61781 | -77.01865 | 2475 ft | 218 kts | 8° |
| 2026-04-24 09:43 | 38.63268 | -77.01788 | 2507 ft | 215 kts | 359° |
| 2026-04-24 09:44 | 38.64764 | -77.01772 | 2499 ft | 212 kts | 356° |
| 2026-04-24 09:44 | 38.66192 | -77.01856 | 2492 ft | 198 kts | 353° |
| 2026-04-24 09:44 | 38.67507 | -77.01988 | 2449 ft | 183 kts | 353° |
| 2026-04-24 09:44 | 38.68729 | -77.02112 | 2321 ft | 171 kts | 354° |
| 2026-04-24 09:45 | 38.69887 | -77.02230 | 2078 ft | 164 kts | 354° |
| 2026-04-24 09:45 | 38.71007 | -77.02342 | 1735 ft | 159 kts | 356° |
| 2026-04-24 09:45 | 38.72107 | -77.02457 | 1621 ft | 158 kts | 356° |
| 2026-04-24 09:45 | 38.73194 | -77.02564 | 1594 ft | 156 kts | 356° |
| 2026-04-24 09:46 | 38.74249 | -77.02672 | 1588 ft | 146 kts | 354° |
| 2026-04-24 09:46 | 38.75228 | -77.02921 | 1575 ft | 144 kts | 343° |
| 2026-04-24 09:46 | 38.76182 | -77.03305 | 1428 ft | 142 kts | 344° |
| 2026-04-24 09:46 | 38.77147 | -77.03431 | 1278 ft | 139 kts | 5° |
| 2026-04-24 09:47 | 38.78099 | -77.03290 | 1152 ft | 139 kts | 7° |
| 2026-04-24 09:47 | 38.79089 | -77.03199 | 963 ft | 140 kts | 357° |
| 2026-04-24 09:47 | 38.80041 | -77.03268 | 812 ft | 136 kts | 352° |
| 2026-04-24 09:47 | 38.80998 | -77.03375 | 658 ft | 139 kts | 352° |
| 2026-04-24 09:48 | 38.81954 | -77.03452 | 488 ft | 137 kts | 351° |
| 2026-04-24 09:48 | 38.82907 | -77.03554 | 316 ft | 138 kts | 351° |
| 2026-04-24 09:48 | 38.83870 | -77.03648 | 108 ft | 142 kts | 353° |
| 2026-04-24 09:48 | 38.84775 | -77.03750 | 23 ft | 109 kts | 356° |
| 2026-04-24 09:49 | 38.85319 | -77.03792 | 22 ft | 47 kts | 355° |
| 2026-04-24 09:49 | 38.85477 | -77.03826 | 27 ft | 6 kts | 329° |
| 2026-04-24 09:49 | 38.85509 | -77.03871 | 24 ft | 8 kts | 298° |
| 2026-04-24 09:49 | 38.85488 | -77.03942 | 28 ft | 10 kts | 207° |
| 2026-04-24 09:50 | 38.85422 | -77.03944 | 26 ft | 10 kts | 176° |
| 2026-04-24 09:50 | 38.85356 | -77.03938 | 24 ft | 9 kts | 176° |
| 2026-04-24 09:50 | 38.85291 | -77.03932 | 25 ft | 12 kts | 175° |
| 2026-04-24 09:50 | 38.85198 | -77.03922 | 25 ft | 14 kts | 175° |
| 2026-04-24 09:51 | 38.85106 | -77.03912 | 26 ft | 13 kts | 175° |
| 2026-04-24 09:51 | 38.85015 | -77.03903 | 25 ft | 14 kts | 175° |
| 2026-04-24 09:51 | 38.84904 | -77.03891 | 26 ft | 17 kts | 175° |
| 2026-04-24 09:51 | 38.84790 | -77.03882 | 27 ft | 16 kts | 182° |
| 2026-04-24 09:52 | 38.84748 | -77.03930 | 25 ft | 8 kts | 271° |
| 2026-04-24 09:52 | 38.84717 | -77.03986 | 24 ft | 9 kts | 209° |
| 2026-04-24 09:52 | 38.84665 | -77.04023 | 24 ft | 8 kts | 209° |
| 2026-04-24 09:52 | 38.84615 | -77.04059 | 25 ft | 8 kts | 211° |
| 2026-04-24 09:53 | 38.84588 | -77.04119 | 25 ft | 8 kts | 259° |
| 2026-04-24 09:53 | 38.84576 | -77.04193 | 27 ft | 9 kts | 258° |
| 2026-04-24 09:53 | 38.84564 | -77.04267 | 23 ft | 6 kts | 258° |
| 2026-04-24 09:53 | 38.84571 | -77.04312 | 23 ft | 6 kts | 321° |
| 2026-04-24 09:54 | 38.84595 | -77.04311 | 23 ft | 2 kts | 54° |
| 2026-04-24 09:54 | 38.84597 | -77.04310 | 23 ft | 0 kts | 34° |
| 2026-04-24 09:54 | 38.84609 | -77.04302 | 24 ft | 4 kts | 27° |
| 2026-04-24 09:54 | 38.84626 | -77.04291 | 23 ft | 0 kts | 28° |
| 2026-04-24 09:55 | 38.84628 | -77.04289 | 23 ft | 0 kts | 28° |